Time;durP1;ratioP1;P1;durP2;ratioP2;P2;SDS_P1;SDS_P2;PMS_P1;PMS_P2;Temp;Humidity;BMP_temperature;BMP_pressure;BME280_temperature;BME280_humidity;BME280_pressure;Samples;Min_cycle;Max_cycle;Signal;HPM_P1;HPM_P2
2022/02/27 00:00:11;;;;;;;16.23;4.20;;;;;;;-1.14;78.08;97859.56;2070051;28;20229;-61
2022/02/27 00:01:12;;;;;;;16.27;3.50;;;;;;;-1.07;78.09;97861.28;2071538;28;20201;-61
2022/02/27 00:02:14;;;;;;;21.10;4.32;;;;;;;-0.85;77.11;97853.50;2070395;28;20547;-61
2022/02/27 00:03:16;;;;;;;12.77;3.85;;;;;;;-0.81;76.95;97858.63;2070507;28;20208;-61
2022/02/27 00:04:17;;;;;;;10.77;3.50;;;;;;;-0.87;77.09;97857.81;2072077;28;20201;-61
2022/02/27 00:05:19;;;;;;;15.68;3.70;;;;;;;-0.96;77.65;97842.38;2071521;28;20229;-61
2022/02/27 00:06:20;;;;;;;16.42;3.90;;;;;;;-0.94;77.71;97861.25;2071800;28;20848;-61
2022/02/27 00:07:26;;;;;;;7.22;2.78;;;;;;;-0.95;77.50;97856.97;2071760;28;20236;-61
2022/02/27 00:08:27;;;;;;;16.13;3.45;;;;;;;-1.12;77.98;97865.56;2068944;28;20194;-61
2022/02/27 00:09:29;;;;;;;11.80;3.35;;;;;;;-1.11;77.84;97862.16;2071578;28;20200;-60
2022/02/27 00:10:31;;;;;;;13.40;3.60;;;;;;;-1.04;77.97;97866.44;2070222;28;20194;-61
2022/02/27 00:11:33;;;;;;;9.63;3.55;;;;;;;-1.10;78.10;97860.44;2070011;28;20201;-61
2022/02/27 00:12:34;;;;;;;11.35;3.20;;;;;;;-1.11;78.27;97862.16;2071292;28;20225;-61
2022/02/27 00:13:36;;;;;;;16.48;4.28;;;;;;;-1.08;78.22;97858.72;2070989;28;20208;-61
2022/02/27 00:14:37;;;;;;;8.13;3.15;;;;;;;-1.11;78.35;97856.16;2070752;28;20742;-61
2022/02/27 00:15:39;;;;;;;15.27;3.53;;;;;;;-1.24;79.05;97857.88;2071957;28;20212;-61
2022/02/27 00:16:41;;;;;;;10.18;2.65;;;;;;;-1.23;78.98;97855.31;2069829;28;20652;-61
2022/02/27 00:17:42;;;;;;;14.00;2.42;;;;;;;-1.23;78.83;97864.75;2070778;28;20544;-61
2022/02/27 00:18:46;;;;;;;12.50;3.17;;;;;;;-1.33;79.20;97848.50;2070447;28;20198;-60
2022/02/27 00:19:48;;;;;;;10.70;3.13;;;;;;;-1.19;79.35;97856.19;2071366;28;20221;-61
2022/02/27 00:20:51;;;;;;;15.23;3.20;;;;;;;-1.15;78.62;97855.31;2071967;28;20332;-61
2022/02/27 00:21:53;;;;;;;11.63;3.58;;;;;;;-1.13;78.82;97856.16;2071770;28;20284;-61
2022/02/27 00:22:55;;;;;;;12.27;3.65;;;;;;;-1.14;78.56;97844.16;2071873;28;20208;-61
2022/02/27 00:23:57;;;;;;;5.43;3.00;;;;;;;-1.09;78.96;97857.00;2071760;28;20197;-61
2022/02/27 00:24:58;;;;;;;12.52;3.60;;;;;;;-1.18;78.73;97857.88;2070184;28;20225;-61
2022/02/27 00:26:00;;;;;;;15.63;4.28;;;;;;;-1.08;78.57;97858.72;2070540;28;20213;-61
2022/02/27 00:27:02;;;;;;;7.03;2.92;;;;;;;-1.16;78.85;97853.59;2073472;28;20204;-60
2022/02/27 00:28:03;;;;;;;13.40;3.28;;;;;;;-1.21;79.40;97848.47;2072913;28;20198;-61
2022/02/27 00:29:05;;;;;;;8.27;2.80;;;;;;;-1.16;79.05;97850.16;2073437;28;20193;-60
2022/02/27 00:30:08;;;;;;;5.35;2.90;;;;;;;-1.35;79.47;97849.34;2072913;28;20688;-61
2022/02/27 00:31:09;;;;;;;15.82;2.78;;;;;;;-1.54;80.73;97848.53;2072469;28;20190;-60
2022/02/27 00:32:11;;;;;;;9.45;3.35;;;;;;;-1.40;80.14;97844.22;2072911;28;20524;-60
2022/02/27 00:33:13;;;;;;;12.00;2.63;;;;;;;-1.36;79.59;97843.34;2072961;28;20312;-61
2022/02/27 00:34:14;;;;;;;12.80;3.53;;;;;;;-1.48;80.10;97844.22;2073136;28;20201;-60
2022/02/27 00:35:15;;;;;;;12.25;3.22;;;;;;;-1.52;79.75;97836.53;2072390;28;20593;-60
2022/02/27 00:36:17;;;;;;;9.68;2.88;;;;;;;-1.43;80.03;97849.34;2073379;28;20194;-61
2022/02/27 00:37:18;;;;;;;9.98;3.05;;;;;;;-1.43;79.80;97847.66;2070658;28;20556;-61
2022/02/27 00:38:20;;;;;;;13.57;4.10;;;;;;;-1.42;79.62;97839.06;2073163;28;20233;-61
2022/02/27 00:39:21;;;;;;;11.25;3.80;;;;;;;-1.38;80.09;97845.06;2072403;28;20590;-61
2022/02/27 00:40:23;;;;;;;9.77;3.05;;;;;;;-1.53;80.62;97840.81;2072571;28;20205;-61
2022/02/27 00:41:24;;;;;;;13.85;3.35;;;;;;;-1.57;81.14;97849.34;2072617;28;20198;-61
2022/02/27 00:42:26;;;;;;;22.48;3.67;;;;;;;-1.57;81.41;97844.22;2073056;28;20217;-60
2022/02/27 00:43:27;;;;;;;12.52;3.78;;;;;;;-1.44;80.27;97847.66;2073219;28;20223;-60
2022/02/27 00:44:29;;;;;;;10.27;3.10;;;;;;;-1.53;80.62;97853.66;2072834;28;20207;-60
2022/02/27 00:45:31;;;;;;;12.98;2.60;;;;;;;-1.54;80.64;97853.66;2072751;28;20197;-61
2022/02/27 00:46:32;;;;;;;11.85;3.85;;;;;;;-1.47;80.53;97845.94;2073079;28;20650;-61
2022/02/27 00:47:34;;;;;;;10.75;3.20;;;;;;;-1.54;80.40;97836.53;2073263;28;20212;-61
2022/02/27 00:48:36;;;;;;;10.45;2.72;;;;;;;-1.46;80.66;97863.06;2073118;28;20201;-60
2022/02/27 00:49:38;;;;;;;13.38;3.10;;;;;;;-1.48;80.57;97864.78;2069680;28;20363;-61
2022/02/27 00:50:39;;;;;;;9.43;3.08;;;;;;;-1.44;80.33;97863.91;2072806;28;20197;-61
2022/02/27 00:51:41;;;;;;;7.25;2.70;;;;;;;-1.53;80.59;97861.38;2073175;28;20190;-61
2022/02/27 00:52:42;;;;;;;10.00;2.83;;;;;;;-1.53;80.92;97855.34;2072251;28;20194;-61
2022/02/27 00:53:45;;;;;;;10.10;2.55;;;;;;;-1.56;80.95;97856.22;2072184;28;20191;-60
2022/02/27 00:54:46;;;;;;;17.60;3.13;;;;;;;-1.60;81.08;97859.66;2072074;28;20221;-60
2022/02/27 00:55:48;;;;;;;8.85;2.78;;;;;;;-1.69;81.42;97850.22;2072830;28;20208;-61
2022/02/27 00:56:49;;;;;;;6.80;3.65;;;;;;;-1.59;81.36;97863.91;2072676;28;20283;-60
2022/02/27 00:57:51;;;;;;;14.02;3.38;;;;;;;-1.56;82.01;97860.50;2073174;28;20668;-61
2022/02/27 00:58:52;;;;;;;15.20;3.30;;;;;;;-1.46;81.82;97860.50;2071350;28;20197;-60
2022/02/27 00:59:55;;;;;;;23.05;5.00;;;;;;;-1.40;81.36;97859.63;2071594;28;20215;-60
2022/02/27 01:00:59;;;;;;;7.00;2.90;;;;;;;-1.43;81.08;97851.91;2071904;28;20656;-61
2022/02/27 01:02:01;;;;;;;7.40;2.47;;;;;;;-1.51;81.83;97861.34;2072454;28;20207;-61
2022/02/27 01:03:03;;;;;;;8.75;2.60;;;;;;;-1.47;81.45;97863.94;2071921;28;20252;-60
2022/02/27 01:04:04;;;;;;;11.25;3.38;;;;;;;-1.41;81.51;97856.22;2073138;28;20198;-61
2022/02/27 01:05:06;;;;;;;23.67;4.57;;;;;;;-1.41;81.62;97858.78;2072669;28;20692;-61
2022/02/27 01:06:08;;;;;;;12.65;3.40;;;;;;;-1.43;81.72;97857.94;2072775;28;20201;-60
2022/02/27 01:07:09;;;;;;;13.40;3.28;;;;;;;-1.37;81.78;97863.91;2072507;28;20268;-61
2022/02/27 01:08:11;;;;;;;11.00;3.10;;;;;;;-1.47;81.41;97863.94;2072686;28;20194;-61
2022/02/27 01:09:13;;;;;;;24.75;3.85;;;;;;;-1.48;81.71;97859.63;2072879;28;20206;-61
2022/02/27 01:10:14;;;;;;;12.55;3.47;;;;;;;-1.45;81.64;97861.34;2071075;28;20336;-61
2022/02/27 01:11:16;;;;;;;14.93;4.28;;;;;;;-1.48;81.80;97858.78;2072134;28;20648;-60
2022/02/27 01:12:17;;;;;;;11.32;2.67;;;;;;;-1.56;81.88;97857.94;2072711;28;20201;-60
2022/02/27 01:13:19;;;;;;;9.27;3.08;;;;;;;-1.63;82.05;97859.63;2071700;28;20199;-60
2022/02/27 01:14:22;;;;;;;13.13;2.83;;;;;;;-1.63;81.42;97857.06;2071065;28;20198;-60
2022/02/27 01:15:23;;;;;;;12.63;4.47;;;;;;;-1.67;81.42;97852.78;2071843;28;20200;-61
2022/02/27 01:16:25;;;;;;;12.95;4.05;;;;;;;-1.70;81.85;97848.53;2071750;28;20208;-61
2022/02/27 01:17:26;;;;;;;10.80;3.80;;;;;;;-1.73;81.47;97855.38;2072587;28;20221;-61
2022/02/27 01:18:28;;;;;;;17.38;6.05;;;;;;;-1.89;81.96;97842.53;2072822;28;20212;-60
2022/02/27 01:19:29;;;;;;;24.15;6.60;;;;;;;-2.06;82.99;97862.19;2070511;28;20200;-60
2022/02/27 01:20:31;;;;;;;17.52;6.22;;;;;;;-1.97;82.68;97859.63;2073229;28;20198;-61
2022/02/27 01:21:32;;;;;;;20.73;7.35;;;;;;;-1.90;82.68;97860.50;2071040;28;20223;-61
2022/02/27 01:22:34;;;;;;;22.55;5.75;;;;;;;-1.93;82.82;97851.06;2072283;28;20197;-60
2022/02/27 01:23:36;;;;;;;18.33;6.40;;;;;;;-1.94;82.29;97846.81;2072179;28;20745;-61
2022/02/27 01:24:37;;;;;;;22.40;6.50;;;;;;;-1.92;82.33;97841.66;2070597;28;20205;-60
2022/02/27 01:25:38;;;;;;;14.98;5.70;;;;;;;-1.99;82.91;97857.06;2073039;28;20196;-61
2022/02/27 01:26:40;;;;;;;23.30;5.88;;;;;;;-1.99;82.74;97856.22;2073087;28;20197;-61
2022/02/27 01:27:41;;;;;;;19.08;5.60;;;;;;;-2.07;82.96;97848.50;2072184;28;20193;-61
2022/02/27 01:28:43;;;;;;;14.98;6.05;;;;;;;-2.10;83.30;97850.19;2073066;28;20196;-61
2022/02/27 01:29:44;;;;;;;15.38;5.53;;;;;;;-2.13;83.98;97850.22;2072740;28;20226;-61
2022/02/27 01:30:46;;;;;;;11.85;4.43;;;;;;;-2.18;83.79;97839.91;2072991;28;20199;-60
2022/02/27 01:31:48;;;;;;;12.35;5.00;;;;;;;-2.03;83.47;97839.09;2072922;28;20195;-61
2022/02/27 01:32:49;;;;;;;12.95;4.65;;;;;;;-2.06;83.57;97836.50;2072612;28;20281;-60
2022/02/27 01:33:51;;;;;;;18.85;5.30;;;;;;;-2.10;83.07;97842.50;2072575;28;20200;-61
2022/02/27 01:34:53;;;;;;;10.45;4.07;;;;;;;-2.04;82.96;97835.69;2072473;28;20583;-61
2022/02/27 01:35:54;;;;;;;12.98;4.60;;;;;;;-2.00;82.86;97842.53;2072711;28;20850;-61
2022/02/27 01:36:56;;;;;;;15.75;4.35;;;;;;;-2.01;83.44;97837.38;2072176;28;20199;-61
2022/02/27 01:37:58;;;;;;;29.02;4.00;;;;;;;-1.99;83.40;97841.66;2071236;28;20228;-61
2022/02/27 01:38:59;;;;;;;14.73;5.63;;;;;;;-1.92;82.43;97844.22;2072813;28;20404;-61
2022/02/27 01:40:02;;;;;;;18.50;5.88;;;;;;;-2.00;82.63;97831.38;2072556;28;20697;-61
2022/02/27 01:41:03;;;;;;;17.63;5.68;;;;;;;-2.15;83.27;97826.25;2072705;28;20196;-61
2022/02/27 01:42:05;;;;;;;23.60;5.57;;;;;;;-2.12;83.21;97834.78;2072661;28;20880;-61
2022/02/27 01:43:06;;;;;;;22.88;5.28;;;;;;;-2.10;82.72;97833.06;2072829;28;20559;-61
2022/02/27 01:44:08;;;;;;;20.48;4.60;;;;;;;-2.15;82.87;97826.25;2069667;28;20201;-61
2022/02/27 01:45:12;;;;;;;22.58;5.10;;;;;;;-2.13;82.83;97825.41;2071688;28;20608;-61
2022/02/27 01:46:15;;;;;;;17.90;4.35;;;;;;;-2.06;82.49;97826.25;2072814;28;20197;-61
2022/02/27 01:47:16;;;;;;;14.65;3.83;;;;;;;-2.02;82.78;97822.81;2072021;28;20194;-60
2022/02/27 01:48:18;;;;;;;11.90;3.60;;;;;;;-2.03;82.53;97823.69;2072930;28;20555;-61
2022/02/27 01:49:19;;;;;;;12.63;4.25;;;;;;;-2.10;82.30;97827.94;2072420;28;20400;-61
2022/02/27 01:50:21;;;;;;;14.73;4.28;;;;;;;-2.16;82.81;97821.97;2072238;28;20249;-60
2022/02/27 01:51:22;;;;;;;23.35;5.90;;;;;;;-2.25;82.59;97815.97;2072729;28;20204;-60
2022/02/27 01:52:24;;;;;;;15.85;4.70;;;;;;;-2.22;82.24;97823.66;2072744;28;20208;-61
2022/02/27 01:53:26;;;;;;;13.63;4.80;;;;;;;-2.19;82.33;97815.13;2072844;28;20194;-61
2022/02/27 01:54:29;;;;;;;17.58;5.63;;;;;;;-2.30;82.67;97815.09;2071396;28;20287;-61
2022/02/27 01:55:30;;;;;;;20.02;6.70;;;;;;;-2.31;82.58;97818.53;2072648;28;20252;-61
2022/02/27 01:56:32;;;;;;;12.95;5.72;;;;;;;-2.29;82.54;97814.25;2072658;28;20202;-61
2022/02/27 01:57:33;;;;;;;20.13;5.80;;;;;;;-2.30;82.65;97812.53;2072740;28;20561;-61
2022/02/27 01:58:35;;;;;;;15.63;5.28;;;;;;;-2.35;82.96;97816.81;2072628;28;20256;-61
2022/02/27 01:59:38;;;;;;;14.60;4.85;;;;;;;-2.35;82.76;97813.38;2072364;28;20535;-61
2022/02/27 02:00:40;;;;;;;14.55;5.07;;;;;;;-2.29;82.62;97821.94;2069832;28;20197;-60
2022/02/27 02:01:42;;;;;;;15.18;5.60;;;;;;;-2.36;83.10;97819.38;2071259;28;20553;-61
2022/02/27 02:02:45;;;;;;;15.50;5.05;;;;;;;-2.34;83.46;97815.09;2072590;28;20201;-61
2022/02/27 02:03:46;;;;;;;19.23;5.80;;;;;;;-2.36;82.86;97817.66;2072641;28;20205;-61
2022/02/27 02:04:48;;;;;;;20.65;5.20;;;;;;;-2.56;84.06;97819.34;2070528;28;20575;-61
2022/02/27 02:05:49;;;;;;;10.90;5.15;;;;;;;-2.52;83.64;97815.91;2071584;28;20310;-61
2022/02/27 02:06:51;;;;;;;16.48;5.25;;;;;;;-2.40;83.50;97814.22;2072288;28;20289;-60
2022/02/27 02:07:52;;;;;;;18.15;5.10;;;;;;;-2.62;83.37;97817.59;2070916;28;20212;-60
2022/02/27 02:08:54;;;;;;;12.18;4.40;;;;;;;-2.63;83.97;97819.31;2071497;28;20208;-61
2022/02/27 02:09:55;;;;;;;16.20;5.50;;;;;;;-2.61;83.98;97814.16;2071777;28;20230;-61
2022/02/27 02:10:59;;;;;;;16.45;5.20;;;;;;;-2.64;84.43;97807.34;2069338;28;20208;-61
2022/02/27 02:12:01;;;;;;;18.10;4.88;;;;;;;-2.66;84.36;97815.88;2069354;28;20203;-61
2022/02/27 02:13:02;;;;;;;18.67;5.43;;;;;;;-2.70;84.41;97812.44;2072558;28;20203;-60
2022/02/27 02:14:05;;;;;;;13.57;3.92;;;;;;;-2.62;84.46;97808.19;2072824;28;20203;-60
2022/02/27 02:15:07;;;;;;;17.75;6.25;;;;;;;-2.58;84.11;97807.34;2072499;28;20226;-60
2022/02/27 02:16:08;;;;;;;13.75;4.53;;;;;;;-2.41;83.38;97815.09;2072584;28;20565;-61
2022/02/27 02:17:10;;;;;;;16.52;4.68;;;;;;;-2.44;83.27;97807.38;2072761;28;20214;-60
2022/02/27 02:18:12;;;;;;;14.73;4.75;;;;;;;-2.43;83.69;97818.47;2071884;28;20416;-60
2022/02/27 02:19:14;;;;;;;17.10;5.35;;;;;;;-2.47;83.50;97809.94;2071915;28;20583;-60
2022/02/27 02:20:17;;;;;;;14.48;4.72;;;;;;;-2.49;83.36;97818.47;2072338;28;20921;-60
2022/02/27 02:21:18;;;;;;;12.90;6.03;;;;;;;-2.55;83.46;97814.19;2072581;28;20230;-61
2022/02/27 02:22:23;;;;;;;16.80;5.30;;;;;;;-2.59;83.88;97817.59;2072836;28;20204;-61
2022/02/27 02:23:24;;;;;;;14.13;4.40;;;;;;;-2.65;83.73;97815.88;2072667;28;20212;-61
2022/02/27 02:24:26;;;;;;;12.68;4.70;;;;;;;-2.54;83.19;97812.50;2072306;28;20675;-60
2022/02/27 02:25:28;;;;;;;15.82;4.78;;;;;;;-2.52;83.79;97816.75;2072517;28;20539;-61
2022/02/27 02:26:30;;;;;;;18.08;4.40;;;;;;;-2.55;83.45;97816.75;2071405;28;20207;-61
2022/02/27 02:27:32;;;;;;;19.38;4.15;;;;;;;-2.66;84.44;97801.34;2072880;28;20199;-60
2022/02/27 02:28:33;;;;;;;18.98;5.43;;;;;;;-2.57;83.85;97808.19;2072848;28;20200;-60
2022/02/27 02:29:35;;;;;;;12.77;4.47;;;;;;;-2.54;84.12;97812.50;2072439;28;20686;-60
2022/02/27 02:30:36;;;;;;;18.83;5.30;;;;;;;-2.54;84.29;97810.78;2071135;28;20227;-60
2022/02/27 02:31:39;;;;;;;14.55;4.63;;;;;;;-2.51;84.02;97804.78;2072764;28;20202;-60
2022/02/27 02:32:47;;;;;;;21.48;5.10;;;;;;;-2.42;84.04;97805.66;2072574;28;20207;-61
2022/02/27 02:33:49;;;;;;;12.70;4.70;;;;;;;-2.54;84.24;97809.94;2069932;28;20199;-61
2022/02/27 02:34:50;;;;;;;18.98;4.60;;;;;;;-2.47;84.36;97801.38;2070400;28;20236;-61
2022/02/27 02:35:51;;;;;;;12.57;4.50;;;;;;;-2.54;84.66;97810.78;2072733;28;20209;-60
2022/02/27 02:36:55;;;;;;;11.80;4.97;;;;;;;-2.53;84.62;97801.38;2072389;28;20674;-60
2022/02/27 02:37:57;;;;;;;12.30;3.65;;;;;;;-2.56;84.43;97801.38;2069997;28;20811;-60
2022/02/27 02:39:00;;;;;;;13.20;4.40;;;;;;;-2.42;84.49;97797.13;2072331;28;20207;-60
2022/02/27 02:40:01;;;;;;;17.88;4.28;;;;;;;-2.48;85.02;97784.28;2070325;28;20231;-60
2022/02/27 02:41:02;;;;;;;10.55;4.13;;;;;;;-2.47;84.48;97802.25;2069759;28;20205;-60
2022/02/27 02:42:04;;;;;;;10.80;3.35;;;;;;;-2.57;84.43;97795.38;2070803;28;20214;-61
2022/02/27 02:43:05;;;;;;;14.23;4.57;;;;;;;-2.42;84.20;97800.53;2072418;28;20195;-60
2022/02/27 02:44:08;;;;;;;15.85;3.83;;;;;;;-2.45;83.81;97797.97;2072389;28;20207;-61
2022/02/27 02:45:12;;;;;;;17.40;4.00;;;;;;;-2.37;83.94;97803.13;2072260;28;20730;-61
2022/02/27 02:46:14;;;;;;;12.50;3.30;;;;;;;-2.43;84.43;97798.84;2072224;28;20674;-60
2022/02/27 02:47:17;;;;;;;15.35;3.45;;;;;;;-2.39;84.73;97804.84;2071469;28;20694;-61
2022/02/27 02:48:18;;;;;;;17.70;5.07;;;;;;;-2.39;85.26;97794.56;2070574;28;20638;-60
2022/02/27 02:49:20;;;;;;;24.08;4.63;;;;;;;-2.34;85.18;97789.44;2070066;28;20248;-60
2022/02/27 02:50:22;;;;;;;12.45;4.10;;;;;;;-2.45;85.36;97789.41;2072505;28;20210;-61
2022/02/27 02:51:24;;;;;;;18.10;3.75;;;;;;;-2.61;85.98;97788.50;2072237;28;20199;-61
2022/02/27 02:52:25;;;;;;;18.75;3.83;;;;;;;-2.45;85.43;97780.00;2072528;28;20203;-60
2022/02/27 02:53:38;;;;;;;9.65;3.83;;;;;;;-2.26;85.30;97790.28;2070405;28;20203;-60
2022/02/27 02:54:39;;;;;;;14.13;3.22;;;;;;;-2.39;85.15;97787.72;2070408;28;20227;-61
2022/02/27 02:55:41;;;;;;;11.77;3.60;;;;;;;-2.44;85.23;97786.84;2071748;28;20207;-61
2022/02/27 02:56:42;;;;;;;11.63;4.15;;;;;;;-2.48;85.65;97779.16;2072603;28;20202;-60
2022/02/27 02:57:44;;;;;;;17.40;3.50;;;;;;;-2.36;85.23;97779.16;2072345;28;20217;-60
2022/02/27 02:58:45;;;;;;;17.13;3.65;;;;;;;-2.43;85.31;97786.00;2072724;28;20199;-60
2022/02/27 02:59:47;;;;;;;9.25;2.53;;;;;;;-2.40;85.38;97780.00;2072104;28;20229;-61
2022/02/27 03:00:49;;;;;;;13.05;3.17;;;;;;;-2.35;85.52;97786.03;2072429;28;20204;-60
2022/02/27 03:01:51;;;;;;;18.73;4.03;;;;;;;-2.32;85.78;97791.13;2072368;28;20208;-60
2022/02/27 03:02:53;;;;;;;9.50;2.85;;;;;;;-2.26;85.35;97780.03;2072409;28;20203;-60
2022/02/27 03:03:55;;;;;;;14.20;3.45;;;;;;;-2.29;85.47;97786.03;2070690;28;20219;-60
2022/02/27 03:04:58;;;;;;;13.77;3.22;;;;;;;-2.26;85.42;97780.03;2071551;28;20227;-61
2022/02/27 03:05:59;;;;;;;19.42;3.80;;;;;;;-2.26;85.47;97786.00;2072515;28;20201;-60
2022/02/27 03:07:00;;;;;;;11.88;3.65;;;;;;;-2.29;85.54;97791.16;2056569;28;20293;-60
2022/02/27 03:08:02;;;;;;;10.20;3.50;;;;;;;-2.28;85.54;97782.59;2055692;28;20547;-60
2022/02/27 03:09:10;;;;;;;12.82;3.40;;;;;;;-2.26;85.57;97780.03;2093416;28;20544;-61
2022/02/27 03:10:12;;;;;;;13.57;3.97;;;;;;;-2.29;85.94;97778.31;2085087;28;20217;-61
2022/02/27 03:11:15;;;;;;;19.48;4.80;;;;;;;-2.28;85.71;97777.44;2081907;28;20333;-61
2022/02/27 03:12:16;;;;;;;12.77;3.38;;;;;;;-2.26;85.60;97772.31;2082754;28;20198;-61
2022/02/27 03:13:18;;;;;;;12.63;3.70;;;;;;;-2.14;85.93;97781.75;2084042;28;20199;-61
2022/02/27 03:14:20;;;;;;;10.27;4.00;;;;;;;-2.11;85.21;97776.63;2081990;28;20253;-61
2022/02/27 03:15:21;;;;;;;11.18;3.40;;;;;;;-2.12;85.09;97783.44;2082455;28;20195;-61
2022/02/27 03:16:23;;;;;;;8.90;3.35;;;;;;;-2.16;85.70;97788.59;2083435;28;20480;-61
2022/02/27 03:17:24;;;;;;;15.95;4.25;;;;;;;-2.17;85.44;97780.03;2082425;28;20626;-61
2022/02/27 03:18:26;;;;;;;15.23;3.55;;;;;;;-2.15;85.54;97785.19;2081859;28;20203;-61
2022/02/27 03:19:27;;;;;;;9.70;3.53;;;;;;;-2.11;85.49;97780.03;2082828;28;20202;-61
2022/02/27 03:20:29;;;;;;;15.23;3.38;;;;;;;-2.08;85.87;97779.19;2084947;28;20549;-61
2022/02/27 03:21:30;;;;;;;12.10;4.00;;;;;;;-2.10;85.64;97770.63;2086427;28;20193;-61
2022/02/27 03:22:32;;;;;;;12.93;3.45;;;;;;;-2.15;85.58;97764.66;2081679;28;20536;-61
2022/02/27 03:23:34;;;;;;;13.02;3.42;;;;;;;-2.16;85.75;97768.91;2083419;28;20195;-62
2022/02/27 03:24:36;;;;;;;13.38;3.25;;;;;;;-2.12;85.83;97770.63;2085173;28;20892;-62
2022/02/27 03:25:37;;;;;;;10.23;3.15;;;;;;;-2.03;85.77;97772.34;2083608;28;20556;-61
2022/02/27 03:26:39;;;;;;;19.58;3.50;;;;;;;-2.03;85.94;97767.22;2079304;28;20206;-61
2022/02/27 03:27:42;;;;;;;10.27;2.95;;;;;;;-2.02;86.05;97774.03;2081252;28;20207;-61
2022/02/27 03:28:44;;;;;;;16.08;3.25;;;;;;;-1.96;86.00;97779.19;2082012;28;20217;-61
2022/02/27 03:29:45;;;;;;;16.73;3.13;;;;;;;-1.96;85.90;97776.63;2082397;28;20234;-61
2022/02/27 03:30:47;;;;;;;16.15;4.32;;;;;;;-2.04;85.63;97770.63;2083700;28;20297;-61
2022/02/27 03:31:49;;;;;;;15.13;4.13;;;;;;;-2.04;86.03;97775.75;2083279;28;20202;-61
2022/02/27 03:32:51;;;;;;;10.50;2.88;;;;;;;-2.09;85.89;97770.63;2083382;28;20711;-61
2022/02/27 03:33:52;;;;;;;12.52;2.58;;;;;;;-1.99;85.72;97774.06;2080654;28;20668;-61
2022/02/27 03:34:54;;;;;;;15.55;2.95;;;;;;;-1.94;85.46;97776.59;2082143;28;20218;-61
2022/02/27 03:35:55;;;;;;;19.25;3.28;;;;;;;-1.98;85.63;97778.31;2081845;28;20193;-61
2022/02/27 03:36:57;;;;;;;12.50;3.70;;;;;;;-2.02;85.58;97781.75;2083197;28;20557;-61
2022/02/27 03:37:58;;;;;;;17.23;3.22;;;;;;;-2.02;85.61;97784.31;2082075;28;20199;-61
2022/02/27 03:39:00;;;;;;;25.33;3.20;;;;;;;-2.03;85.79;97780.03;2080817;28;20203;-62
2022/02/27 03:40:03;;;;;;;11.05;3.40;;;;;;;-2.01;85.57;97775.75;2080083;28;20226;-61
2022/02/27 03:41:05;;;;;;;14.45;3.45;;;;;;;-2.02;85.93;97776.59;2082082;28;20231;-62
2022/02/27 03:42:07;;;;;;;10.20;3.10;;;;;;;-2.02;85.90;97774.03;2083343;28;20569;-61
2022/02/27 03:43:08;;;;;;;13.05;3.55;;;;;;;-2.04;85.90;97781.75;2083173;28;20241;-61
2022/02/27 03:44:10;;;;;;;12.18;2.97;;;;;;;-2.05;85.87;97772.34;2083351;28;20198;-61
2022/02/27 03:45:13;;;;;;;10.73;2.97;;;;;;;-1.76;85.60;97768.91;2082845;28;20241;-61
2022/02/27 03:46:14;;;;;;;10.82;3.83;;;;;;;-1.99;85.42;97777.47;2079872;28;20199;-61
2022/02/27 03:47:16;;;;;;;12.50;3.75;;;;;;;-2.06;85.58;97775.78;2082636;28;20203;-61
2022/02/27 03:48:17;;;;;;;9.70;3.30;;;;;;;-2.16;85.32;97778.31;2083624;28;20262;-61
2022/02/27 03:49:19;;;;;;;16.75;3.70;;;;;;;-2.26;85.56;97780.88;2081948;28;20221;-63
2022/02/27 03:50:21;;;;;;;8.63;3.28;;;;;;;-2.05;85.97;97779.19;2083837;28;20191;-61
2022/02/27 03:51:23;;;;;;;17.27;4.13;;;;;;;-2.16;85.80;97778.31;2083482;28;20206;-61
2022/02/27 03:52:24;;;;;;;7.75;3.03;;;;;;;-2.33;86.58;97783.44;2083492;28;20204;-61
2022/02/27 03:53:26;;;;;;;11.93;3.67;;;;;;;-2.25;86.61;97790.31;2082935;28;20204;-61
2022/02/27 03:54:27;;;;;;;10.43;3.63;;;;;;;-2.16;86.25;97783.47;2082896;28;20535;-61
2022/02/27 03:55:28;;;;;;;10.02;2.95;;;;;;;-2.23;86.83;97780.03;2081458;28;20209;-61
2022/02/27 03:56:30;;;;;;;15.15;3.40;;;;;;;-2.30;86.56;97781.72;2082384;28;20206;-61
2022/02/27 03:57:31;;;;;;;9.02;3.17;;;;;;;-2.32;86.71;97780.88;2082695;28;20198;-61
2022/02/27 03:58:33;;;;;;;18.90;4.97;;;;;;;-2.29;86.49;97783.47;2081819;28;20208;-61
2022/02/27 03:59:34;;;;;;;14.35;4.05;;;;;;;-2.27;86.58;97779.19;2082756;28;20203;-61
2022/02/27 04:00:36;;;;;;;13.50;3.95;;;;;;;-2.26;86.41;97778.31;2081967;28;20214;-61
2022/02/27 04:01:37;;;;;;;10.15;3.60;;;;;;;-2.27;86.57;97778.34;2081300;28;20205;-61
2022/02/27 04:02:40;;;;;;;19.20;2.80;;;;;;;-2.32;86.55;97785.16;2081285;28;20229;-61
2022/02/27 04:03:43;;;;;;;8.10;2.90;;;;;;;-2.39;85.01;97779.19;2082580;28;20201;-61
2022/02/27 04:04:45;;;;;;;11.65;3.97;;;;;;;-2.46;84.73;97782.56;2084433;28;20219;-61
2022/02/27 04:05:46;;;;;;;15.05;3.92;;;;;;;-2.46;84.40;97782.56;2082921;28;20652;-61
2022/02/27 04:06:48;;;;;;;16.40;4.85;;;;;;;-2.65;83.96;97782.50;2083728;28;20210;-61
2022/02/27 04:07:49;;;;;;;11.85;3.63;;;;;;;-2.76;84.65;97785.91;2082513;28;20629;-61
2022/02/27 04:08:51;;;;;;;14.70;3.85;;;;;;;-2.73;84.82;97785.94;2082789;28;20241;-61
2022/02/27 04:09:54;;;;;;;11.70;4.07;;;;;;;-2.78;85.15;97791.06;2082314;28;20325;-61
2022/02/27 04:10:56;;;;;;;16.67;4.85;;;;;;;-2.79;85.42;97790.19;2081635;28;20194;-61
2022/02/27 04:11:57;;;;;;;16.13;4.45;;;;;;;-2.66;86.77;97785.94;2082859;28;20782;-61
2022/02/27 04:12:59;;;;;;;12.60;4.55;;;;;;;-2.61;86.92;97794.53;2084549;28;20202;-61
2022/02/27 04:14:01;;;;;;;17.67;4.30;;;;;;;-2.50;86.96;97797.09;2082681;28;20194;-61
2022/02/27 04:15:04;;;;;;;10.05;3.45;;;;;;;-2.40;87.01;97795.41;2082864;28;20576;-61
2022/02/27 04:16:05;;;;;;;14.70;3.97;;;;;;;-2.57;87.05;97785.09;2082081;28;20201;-61
2022/02/27 04:17:07;;;;;;;10.57;3.60;;;;;;;-2.53;86.13;97791.09;2082778;28;20814;-61
2022/02/27 04:18:08;;;;;;;12.02;4.18;;;;;;;-2.69;85.89;97798.75;2081972;28;20225;-61
2022/02/27 04:19:10;;;;;;;9.68;4.03;;;;;;;-2.79;85.56;97802.16;2082880;28;20245;-61
2022/02/27 04:20:12;;;;;;;16.45;4.60;;;;;;;-2.86;85.35;97798.72;2075681;28;20230;-61
2022/02/27 04:21:13;;;;;;;7.40;4.10;;;;;;;-2.99;85.44;97792.69;2073682;28;20198;-61
2022/02/27 04:22:15;;;;;;;13.50;4.97;;;;;;;-2.87;85.14;97797.00;2074377;28;21146;-61
2022/02/27 04:23:16;;;;;;;14.77;4.05;;;;;;;-2.79;85.65;97800.44;2077507;28;20205;-61
2022/02/27 04:24:18;;;;;;;14.18;4.60;;;;;;;-2.71;85.92;97800.47;2076159;28;20630;-61
2022/02/27 04:25:19;;;;;;;7.63;3.75;;;;;;;-2.74;86.01;97800.47;2071958;28;20585;-61
2022/02/27 04:26:21;;;;;;;10.27;4.35;;;;;;;-2.72;86.26;97798.75;2072698;28;20221;-61
2022/02/27 04:27:23;;;;;;;13.40;4.22;;;;;;;-2.67;86.18;97793.63;2077543;28;20199;-61
2022/02/27 04:28:24;;;;;;;16.10;4.53;;;;;;;-2.69;86.34;97798.75;2076657;28;20611;-61
2022/02/27 04:29:25;;;;;;;14.18;3.92;;;;;;;-2.74;86.46;97797.91;2075524;28;20246;-61
2022/02/27 04:30:27;;;;;;;15.13;3.50;;;;;;;-2.74;86.17;97797.91;2078665;28;20728;-61
2022/02/27 04:31:29;;;;;;;19.42;4.35;;;;;;;-2.76;86.29;97793.59;2076728;28;20201;-61
2022/02/27 04:32:31;;;;;;;14.63;3.50;;;;;;;-2.69;86.34;97796.19;2076196;28;20194;-61
2022/02/27 04:33:32;;;;;;;13.93;4.68;;;;;;;-2.59;86.31;97797.94;2076161;28;20210;-61
2022/02/27 04:34:34;;;;;;;18.13;4.40;;;;;;;-2.60;86.24;97795.38;2078744;28;20206;-61
2022/02/27 04:35:36;;;;;;;17.83;4.22;;;;;;;-2.71;85.25;97795.31;2076299;28;20199;-62
2022/02/27 04:36:38;;;;;;;14.00;4.50;;;;;;;-2.70;85.53;97788.50;2076648;28;20272;-61
2022/02/27 04:37:39;;;;;;;9.38;4.50;;;;;;;-2.74;85.37;97795.34;2075356;28;20303;-61
2022/02/27 04:38:41;;;;;;;5.82;3.80;;;;;;;-2.88;85.83;97796.97;2077710;28;20926;-61
2022/02/27 04:39:42;;;;;;;8.32;3.40;;;;;;;-2.84;85.94;97793.59;2076745;28;20223;-61
2022/02/27 04:40:44;;;;;;;16.20;4.00;;;;;;;-2.71;86.49;97799.59;2075959;28;20212;-62
2022/02/27 04:41:45;;;;;;;10.32;3.88;;;;;;;-2.75;86.69;97796.19;2077908;28;20741;-61
2022/02/27 04:42:47;;;;;;;13.07;4.10;;;;;;;-2.76;87.08;97788.47;2076674;28;20205;-61
2022/02/27 04:43:49;;;;;;;9.77;3.75;;;;;;;-2.72;87.41;97788.50;2076284;28;20720;-61
2022/02/27 04:44:51;;;;;;;15.73;3.70;;;;;;;-2.68;86.96;97787.66;2077924;28;20222;-61
2022/02/27 04:45:53;;;;;;;11.75;3.83;;;;;;;-2.62;87.58;97781.69;2078159;28;20208;-61
2022/02/27 04:46:55;;;;;;;22.95;5.72;;;;;;;-2.61;88.04;97781.69;2077143;28;20618;-61
2022/02/27 04:47:57;;;;;;;12.13;4.25;;;;;;;-2.57;88.31;97782.53;2076528;28;20524;-61